createdAt,value
2018-02-14T00:02:17.189Z,17.10
2018-02-14T00:07:08.108Z,17.73
2018-02-14T00:11:58.984Z,14.37
2018-02-14T00:16:49.864Z,16.97
2018-02-14T00:21:40.773Z,21.90
2018-02-14T00:26:31.660Z,18.93
2018-02-14T00:31:22.597Z,16.80
2018-02-14T00:36:13.500Z,20.67
2018-02-14T00:41:04.429Z,17.60
2018-02-14T00:45:55.353Z,15.67
2018-02-14T00:50:46.989Z,20.30
2018-02-14T00:55:37.905Z,16.30
2018-02-14T01:00:28.795Z,15.40
2018-02-14T01:05:19.689Z,19.17
2018-02-14T01:10:11.308Z,17.50
2018-02-14T01:15:02.184Z,19.63
2018-02-14T01:19:59.288Z,14.33
2018-02-14T01:24:50.201Z,17.40
2018-02-14T01:29:41.185Z,13.83
2018-02-14T01:34:32.061Z,22.90
2018-02-14T01:39:23.736Z,17.67
2018-02-14T01:44:14.626Z,16.77
2018-02-14T01:49:05.576Z,12.50
2018-02-14T01:53:56.456Z,17.57
2018-02-14T01:58:48.081Z,16.50
2018-02-14T02:03:39.709Z,14.53
2018-02-14T02:08:31.337Z,14.93
2018-02-14T02:13:22.229Z,11.73
2018-02-14T02:18:13.120Z,15.20
2018-02-14T02:23:04.033Z,19.17
2018-02-14T02:27:54.916Z,13.07
2018-02-14T02:32:46.620Z,13.23
2018-02-14T02:37:37.512Z,13.13
2018-02-14T02:42:28.401Z,12.97
2018-02-14T02:47:20.025Z,17.30
2018-02-14T02:52:11.713Z,15.93
2018-02-14T02:57:02.597Z,14.33
2018-02-14T03:01:53.482Z,17.53
2018-02-14T03:06:44.525Z,11.90
2018-02-14T03:11:36.161Z,14.03
2018-02-14T03:16:27.804Z,22.43
2018-02-14T03:21:19.461Z,14.33
2018-02-14T03:26:10.355Z,27.97
2018-02-14T03:31:01.989Z,14.37
2018-02-14T03:35:53.617Z,14.60
2018-02-14T03:40:45.257Z,16.70
2018-02-14T03:45:36.950Z,13.83
2018-02-14T03:50:27.841Z,14.57
2018-02-14T03:55:18.772Z,14.40
2018-02-14T04:00:09.654Z,15.50
2018-02-14T04:05:01.341Z,11.23
2018-02-14T04:09:52.233Z,14.43
2018-02-14T04:14:43.134Z,12.50
2018-02-14T04:19:34.033Z,14.70
2018-02-14T04:24:25.677Z,14.90
2018-02-14T04:29:17.306Z,16.77
2018-02-14T04:34:08.937Z,16.00
2018-02-14T04:39:00.632Z,17.13
2018-02-14T04:43:51.525Z,11.70
2018-02-14T04:48:42.453Z,13.23
2018-02-14T04:53:33.325Z,13.03
2018-02-14T04:58:24.961Z,16.30
2018-02-14T05:03:16.677Z,12.43
2018-02-14T05:08:07.564Z,10.60
2018-02-14T05:12:58.501Z,17.00
2018-02-14T05:17:49.612Z,9.40
2018-02-14T05:22:40.501Z,14.20
2018-02-14T05:27:31.393Z,14.87
2018-02-14T05:32:23.021Z,12.03
2018-02-14T05:37:14.653Z,19.23
2018-02-14T05:42:05.546Z,9.87
2018-02-14T05:46:57.185Z,16.07
2018-02-14T05:51:48.081Z,15.33
2018-02-14T05:56:38.958Z,14.40
2018-02-14T06:01:30.590Z,11.60
2018-02-14T06:06:22.289Z,12.60
2018-02-14T06:11:13.199Z,10.03
2018-02-14T06:16:04.105Z,11.70
2018-02-14T06:20:54.995Z,15.17
2018-02-14T06:25:45.881Z,13.20
2018-02-14T06:30:36.797Z,10.97
2018-02-14T06:35:27.689Z,12.97
2018-02-14T06:40:18.613Z,15.47
2018-02-14T06:45:09.515Z,12.47
2018-02-14T06:50:00.414Z,9.50
2018-02-14T06:54:51.304Z,12.03
2018-02-14T06:59:42.963Z,11.07
2018-02-14T07:04:33.886Z,13.30
2018-02-14T07:09:24.780Z,12.57
2018-02-14T07:14:16.414Z,11.80
2018-02-14T07:19:08.050Z,14.40
2018-02-14T07:23:59.677Z,15.10
2018-02-14T07:28:51.305Z,11.40
2018-02-14T07:33:42.306Z,12.80
2018-02-14T07:38:33.283Z,10.40
2018-02-14T07:43:24.237Z,10.30
2018-02-14T07:48:15.158Z,8.27
2018-02-14T07:53:06.785Z,8.40
2018-02-14T07:57:57.681Z,10.30
2018-02-14T08:02:48.574Z,11.83
2018-02-14T08:07:40.204Z,20.10
2018-02-14T08:12:31.845Z,18.67
2018-02-14T08:17:23.533Z,19.13
2018-02-14T08:22:14.441Z,18.13
2018-02-14T08:27:05.369Z,20.27
2018-02-14T08:31:56.261Z,25.43
2018-02-14T08:36:47.217Z,31.77
2018-02-14T08:41:38.115Z,27.13
2018-02-14T08:46:29.010Z,32.13
2018-02-14T08:51:19.892Z,30.23
2018-02-14T08:56:10.878Z,33.80
2018-02-14T09:01:01.782Z,31.90
2018-02-14T09:05:52.688Z,34.37
2018-02-14T09:10:43.578Z,29.43
2018-02-14T09:15:35.260Z,24.93
2018-02-14T09:20:26.161Z,34.60
2018-02-14T09:25:17.061Z,31.07
2018-02-14T09:30:08.698Z,29.67
2018-02-14T09:34:59.601Z,32.70
2018-02-14T09:39:51.221Z,32.07
2018-02-14T09:44:42.110Z,31.47
2018-02-14T09:49:33.025Z,42.93
2018-02-14T09:54:23.968Z,31.70
2018-02-14T09:59:14.833Z,33.27
2018-02-14T10:04:05.732Z,33.43
2018-02-14T10:08:57.365Z,28.47
2018-02-14T10:13:49.002Z,27.13
2018-02-14T10:18:40.633Z,30.90
2018-02-14T10:23:32.258Z,37.10
2018-02-14T10:28:23.155Z,30.80
2018-02-14T10:33:14.045Z,32.10
2018-02-14T10:38:04.985Z,29.60
2018-02-14T10:42:55.897Z,30.00
2018-02-14T10:47:46.795Z,27.33
2018-02-14T10:52:37.701Z,28.23
2018-02-14T10:57:28.589Z,42.87
2018-02-14T11:02:20.235Z,42.83
2018-02-14T11:07:17.831Z,41.00
2018-02-14T11:12:08.725Z,38.07
2018-02-14T11:17:00.369Z,39.40
2018-02-14T11:21:52.006Z,31.60
2018-02-14T11:26:43.640Z,39.37
2018-02-14T11:31:35.281Z,32.13
2018-02-14T11:36:26.180Z,29.67
2018-02-14T11:41:17.850Z,29.77
2018-02-14T11:46:08.748Z,31.53
2018-02-14T11:51:00.417Z,31.53
2018-02-14T11:55:51.305Z,29.90
2018-02-14T12:00:42.190Z,29.67
2018-02-14T12:05:33.073Z,30.33
2018-02-14T12:10:23.965Z,25.47
2018-02-14T12:15:14.856Z,28.70
2018-02-14T12:20:06.489Z,23.50
2018-02-14T12:24:58.136Z,20.93
2018-02-14T12:29:49.781Z,28.17
2018-02-14T12:34:40.685Z,27.10
2018-02-14T12:39:32.321Z,22.40
2018-02-14T12:44:23.975Z,26.33
2018-02-14T12:49:14.885Z,34.83
2018-02-14T12:54:05.790Z,30.07
2018-02-14T12:58:57.499Z,28.00
2018-02-14T13:03:48.393Z,22.23
2018-02-14T13:08:39.287Z,25.73
2018-02-14T13:13:30.202Z,26.00
2018-02-14T13:18:21.108Z,18.80
2018-02-14T13:23:12.750Z,22.33
2018-02-14T13:28:03.649Z,24.87
2018-02-14T13:32:54.564Z,17.80
2018-02-14T13:37:46.205Z,19.67
2018-02-14T13:42:37.902Z,19.90
2018-02-14T13:47:28.811Z,15.13
2018-02-14T13:52:19.709Z,18.63
2018-02-14T13:57:10.606Z,15.30
2018-02-14T14:02:01.572Z,25.63
2018-02-14T14:06:52.448Z,17.13
2018-02-14T14:11:43.345Z,15.40
2018-02-14T14:16:34.985Z,15.23
2018-02-14T14:21:26.608Z,15.43
2018-02-14T14:26:17.506Z,12.90
2018-02-14T14:31:08.409Z,12.37
2018-02-14T14:35:59.345Z,15.10
2018-02-14T14:40:50.242Z,14.70
2018-02-14T14:45:41.144Z,17.70
2018-02-14T14:50:32.037Z,15.30
2018-02-14T14:55:23.730Z,10.97
2018-02-14T15:00:14.617Z,13.00
2018-02-14T15:05:05.509Z,13.83
2018-02-14T15:09:57.126Z,17.00
2018-02-14T15:14:48.018Z,17.53
2018-02-14T15:19:38.909Z,11.57
2018-02-14T15:24:29.827Z,14.30
2018-02-14T15:29:20.720Z,12.57
2018-02-14T15:34:12.353Z,17.17
2018-02-14T15:39:03.980Z,14.27
2018-02-14T15:43:55.609Z,17.30
2018-02-14T15:48:47.308Z,14.17
2018-02-14T15:53:38.210Z,19.43
2018-02-14T15:58:29.107Z,13.20
2018-02-14T16:03:20.026Z,18.47
2018-02-14T16:08:10.908Z,15.80
2018-02-14T16:13:01.834Z,16.13
2018-02-14T16:17:53.480Z,12.53
2018-02-14T16:22:45.112Z,14.80
2018-02-14T16:27:36.812Z,19.97
2018-02-14T16:32:27.705Z,13.50
2018-02-14T16:37:18.610Z,20.20
2018-02-14T16:42:09.505Z,14.83
2018-02-14T16:47:01.161Z,13.47
2018-02-14T16:51:52.040Z,16.80
2018-02-14T16:56:42.931Z,18.33
2018-02-14T17:01:33.833Z,15.60
2018-02-14T17:06:24.834Z,13.63
2018-02-14T17:11:15.727Z,16.03
2018-02-14T17:16:07.392Z,13.67
2018-02-14T17:20:58.345Z,17.70
2018-02-14T17:25:49.237Z,19.57
2018-02-14T17:30:40.169Z,17.57
2018-02-14T17:35:31.048Z,16.80
2018-02-14T17:40:22.736Z,13.33
2018-02-14T17:45:13.633Z,21.13
2018-02-14T17:50:04.533Z,20.23
2018-02-14T17:54:55.470Z,18.90
2018-02-14T17:59:46.416Z,16.87
2018-02-14T18:04:37.324Z,18.97
2018-02-14T18:09:28.224Z,20.67
2018-02-14T18:14:19.117Z,22.63
2018-02-14T18:19:10.087Z,23.40
2018-02-14T18:24:00.992Z,23.87
2018-02-14T18:28:51.904Z,28.17
2018-02-14T18:33:42.793Z,26.90
2018-02-14T18:38:33.756Z,34.37
2018-02-14T18:43:24.636Z,29.17
2018-02-14T18:48:15.581Z,32.30
2018-02-14T18:53:06.470Z,36.87
2018-02-14T18:57:57.372Z,33.80
2018-02-14T19:02:48.984Z,34.03
2018-02-14T19:07:39.969Z,37.43
2018-02-14T19:12:30.856Z,36.40
2018-02-14T19:17:21.754Z,38.33
2018-02-14T19:22:13.389Z,34.07
2018-02-14T19:27:05.025Z,35.30
2018-02-14T19:31:56.790Z,35.13
2018-02-14T19:36:47.713Z,35.43
2018-02-14T19:41:38.656Z,34.73
2018-02-14T19:46:29.577Z,40.00
2018-02-14T19:51:20.505Z,42.00
2018-02-14T19:56:11.441Z,30.60
2018-02-14T20:01:02.465Z,43.20
2018-02-14T20:05:53.397Z,38.30
2018-02-14T20:10:45.101Z,39.33
2018-02-14T20:15:36.013Z,43.80
2018-02-14T20:20:27.650Z,36.73
2018-02-14T20:25:18.616Z,40.83
2018-02-14T20:30:10.268Z,39.33
2018-02-14T20:35:01.160Z,37.20
2018-02-14T20:39:52.804Z,38.57
2018-02-14T20:44:44.437Z,49.53
2018-02-14T20:49:36.077Z,40.23
2018-02-14T20:54:27.727Z,40.60
2018-02-14T20:59:18.617Z,42.20
2018-02-14T21:04:10.315Z,44.67
2018-02-14T21:09:01.349Z,42.67
2018-02-14T21:13:52.388Z,39.00
2018-02-14T21:18:43.405Z,40.37
2018-02-14T21:23:34.435Z,39.90
2018-02-14T21:28:26.210Z,43.20
2018-02-14T21:33:17.186Z,42.20
2018-02-14T21:38:08.206Z,48.63
2018-02-14T21:42:59.225Z,47.63
2018-02-14T21:47:50.411Z,49.37
2018-02-14T21:52:41.359Z,45.03
2018-02-14T21:57:32.329Z,40.83
2018-02-14T22:02:23.355Z,53.13
2018-02-14T22:07:14.393Z,52.03
2018-02-14T22:12:06.136Z,48.93
2018-02-14T22:16:57.784Z,49.77
2018-02-14T22:21:48.730Z,57.10
2018-02-14T22:26:40.408Z,53.60
2018-02-14T22:31:32.074Z,40.43
2018-02-14T22:36:23.062Z,53.07
2018-02-14T22:41:14.720Z,52.47
2018-02-14T22:46:05.644Z,53.77
2018-02-14T22:50:56.579Z,52.20
2018-02-14T22:55:47.496Z,55.50
2018-02-14T23:00:38.449Z,55.37
2018-02-14T23:05:29.376Z,56.37
2018-02-14T23:10:20.304Z,64.27
2018-02-14T23:15:11.316Z,60.40
2018-02-14T23:20:02.228Z,52.37
2018-02-14T23:24:53.141Z,49.80
2018-02-14T23:29:44.061Z,74.20
2018-02-14T23:34:34.997Z,58.47
2018-02-14T23:39:26.010Z,53.97
2018-02-14T23:44:16.948Z,64.93
2018-02-14T23:49:08.626Z,52.27
2018-02-14T23:53:59.560Z,55.60
2018-02-14T23:58:50.489Z,52.50
